Mojave, CA (93501)

4:04 PM PDT on July 27, 2016 (GMT -0700)
Mojave | | Change Station

Elev 2785 ft 35.06 °N, 118.15 °W | Updated 24 minutes ago

Clear
Clear
106 °F
Feels Like 106 °F
N
10
Wind Variable Wind from West
Gusts 22 mph

Today
High -- | Low -- °F
--% Chance of Precip.
Yesterday
High -- | Low -- °F
Precip. -- in
Pressure 29.93 in
Visibility 10.0 miles
Clouds Clear
Dew Point 45 °F
Humidity 13%
Rainfall 0.00 in
Snow Depth Not available.
5:58 AM 7:59 PM
Last Quarter, 39% visible
METAR KMHV 272240Z AUTO 26009G19KT 230V290 10SM CLR 41/07 A2993 RMK A01
Pressure 29.93 in
Visibility 10.0 miles
Clouds Clear
Dew Point 45 °F
Humidity 13%
Rainfall 0.00 in
Snow Depth Not available.
5:58 AM 7:59 PM
Last Quarter, 39% visible
METAR KMHV 272240Z AUTO 26009G19KT 230V290 10SM CLR 41/07 A2993 RMK A01

10-Day Weather Forecast

Almanac

Astronomy

Jul. 27, 2016 Rise Set
Actual Time
Civil Twilight
Nautical Twilight
Astronomical Twilight
Moon
Length of Visible Light
Length of Day
Tomorrow will be .
, % of the Moon is Illuminated

Today's Extremes

State Highs State Lows

Community

WunderPhotos

Upload Photos

1,927,953 photos uploaded!

WunderBlog® & News

Nearby

Air Quality

  Air Quality AQ Index Pollutant
Not available.

Snow Depth

Station Depth Elevation

Earthquake Activity

City Distance Mag. Time & Date
Minimum magnitude displayed is 2.5.

Coastal Water Temperatures

Place Temperature

Stations

Nearby Weather Stations

Station Location Temp. Windchill Dew Point Humidity Wind Precip. Elev Updated Type
                   

Watches & Warnings

There are currently no watches in effect.